28 settembre 2022

Tempo Codice Tempo metereologico Temp. Vista Base nuvolosa Vento METAR/SPECI
00:25
V
7 °C 10 km+ 4.800 ft 240° 240° 5 kt METAR EHEH 272225Z AUTO 24005KT 9999 BKN048 OVC056 07/07 Q0996 BLU

27 settembre 2022

Tempo Codice Tempo metereologico Temp. Vista Base nuvolosa Vento METAR/SPECI
23:55
V
7 °C 10 km+ 10.000 ft 230° 230° 7 kt METAR EHEH 272155Z AUTO 23007KT 9999 FEW072 BKN100 OVC170 07/07 Q0996 BLU
23:25
V
8 °C 10 km+ 6.400 ft 200° 200° 7 kt METAR EHEH 272125Z AUTO 20007KT 9999 -DZ SCT057 BKN064 OVC077 08/07 Q0996 BLU
23:00
V
8 °C 10 km+ 4.100 ft 220° 220° 5 kt METAR EHEH 272100Z AUTO 22005KT 170V250 9999 FEW015CB BKN041 BKN048 08/07 Q0996 BLU
22:55
V
8 °C 10 km+ 4.000 ft 240° 240° 5 kt METAR EHEH 272055Z AUTO 24005KT 200V290 9999 FEW015CB OVC040 08/08 Q0997 BLU TEMPO 27013G23KT 4000 SHRA TSRA FEW003 SCT008 SCT018CB BKN030
22:25
V
8 °C 10 km+ 4.100 ft 200° 200° 4 kt METAR EHEH 272025Z AUTO 20004KT 180V240 9999 FEW015CB OVC041 08/08 Q0997 REDZ BLU TEMPO 27013G23KT 4000 SHRA TSRA FEW003 SCT008 SCT018CB BKN030
21:55
V
8 °C 10 km+ 4.400 ft 180° 180° 7 kt METAR EHEH 271955Z AUTO 18007KT 150V220 9999 -RA FEW015CB OVC044 08/07 Q0997 RERA REDZ BLU TEMPO 27013G23KT 4000 SHRA TSRA FEW003 SCT008 SCT018CB BKN030
21:44
V
8 °C 10 km+ 4.200 ft 180° 180° 6 kt METAR EHEH 271944Z AUTO 18006KT 150V210 9999 -DZ FEW015CB BKN042 BKN047 OVC053 08/07 Q0997 BLU TEMPO 27013G23KT 4000 SHRA TSRA FEW003 SCT008 SCT018CB BKN030
21:34
V
8 °C 10 km+ 5.600 ft 160° 160° 6 kt METAR EHEH 271934Z AUTO 16006KT 140V210 9999 -RA FEW015CB SCT042 OVC056 08/08 Q0997 BLU TEMPO 27013G23KT 4000 SHRA TSRA FEW003 SCT008 SCT018CB BKN030
21:25
V
8 °C 10 km+ 4.500 ft 170° 170° 7 kt METAR EHEH 271925Z AUTO 17007KT 150V210 9999 -RA SCT015CB SCT040 OVC045 08/07 Q0997 RERA WHT TEMPO 27013G23KT 4000 SHRA TSRA FEW003 SCT008 SCT018CB BKN030
20:55
V
8 °C 10 km+ 3.900 ft 210° 210° 4 kt METAR EHEH 271855Z AUTO 21004KT 190V250 9999 -RA SCT015CB SCT032 OVC039 08/08 Q0997 WHT TEMPO 27013G23KT 4000 SHRA TSRA FEW003 SCT008 SCT018CB BKN030
20:25
V
8 °C 10 km+ 4.300 ft 190° 190° 5 kt METAR EHEH 271825Z AUTO 19005KT 9999 FEW015CB BKN043 OVC048 08/08 Q0997 REDZ BLU TEMPO 27013G23KT 4000 SHRA TSRA FEW003 SCT008 SCT018CB BKN030
20:09
V
8 °C 10 km+ 4.500 ft 180° 180° 5 kt METAR EHEH 271809Z AUTO 18005KT 9999 DZRA FEW010 FEW015CB BKN045 OVC053 08/08 Q0997 BLU TEMPO 27013G23KT 4000 SHRA TSRA FEW003 SCT008 SCT018CB BKN030
20:06
V
8 °C 10 km+ 5.000 ft 180° 180° 5 kt METAR EHEH 271806Z AUTO 18005KT 9999 -RA SCT015CB SCT045 BKN050 08/08 Q0997 WHT TEMPO 27013G23KT 4000 SHRA TSRA FEW003 SCT008 SCT018CB BKN030
19:55
M
9 °C 6 km 3.900 ft 210° 210° 5 kt METAR EHEH 271755Z AUTO 21005KT 6000 RA SCT015CB BKN039 OVC043 09/08 Q0997 WHT TEMPO 27013G23KT 4000 SHRA TSRA FEW003 SCT008 SCT018CB BKN030
19:28
M
9 °C 5 km 3.300 ft 210° 210° 4 kt METAR EHEH 271728Z AUTO 21004KT 160V230 5000 SHRA FEW015CB BKN033 OVC037 09/08 Q0997 WHT TEMPO 27013G23KT 4000 SHRA TSRA FEW003 SCT008 SCT018CB BKN030
19:25
V
9 °C 9 km 3.500 ft 210° 210° 3 kt METAR EHEH 271725Z AUTO 21003KT 160V220 9000 -SHRA FEW015CB OVC035 09/08 Q0997 RERA BLU TEMPO 27013G23KT 4000 SHRA FEW003 SCT008 SCT020CB BKN035
19:18
V
9 °C 10 km+ 3.500 ft 200° 200° 3 kt METAR EHEH 271718Z AUTO 20003KT 160V230 9999 SHRA FEW002 FEW015CB OVC035 09/08 Q0997 BLU TEMPO 27013G23KT 4000 SHRA FEW003 SCT008 SCT020CB BKN035
19:13
V
9 °C 10 km+ 3.000 ft Var Var 1 kt METAR EHEH 271713Z AUTO VRB01KT 9999 -SHRA FEW002 FEW015CB SCT023 BKN030 09/09 Q0997 WHT TEMPO 27013G23KT 4000 SHRA FEW003 SCT008 SCT020CB BKN035
19:09
V
9 °C 10 km+ 3.600 ft Var Var 1 kt METAR EHEH 271709Z AUTO VRB01KT 9999 -SHRA FEW002 FEW015CB SCT025 BKN036 09/09 Q0997 BLU TEMPO 27013G23KT 4000 SHRA FEW003 SCT008 SCT020CB BKN035
18:55
V
9 °C 8 km 4.100 ft 170° 170° 5 kt METAR EHEH 271655Z AUTO 17005KT 160V230 8000 SHRA FEW015CB SCT036 BKN041 09/08 Q0998 BLU TEMPO 27013G23KT 4000 SHRA SCT010 SCT020CB BKN035
18:43
V
9 °C 10 km+ 5.000 ft 190° 190° 3 kt METAR EHEH 271643Z AUTO 19003KT 180V250 9999 -RA FEW015CB SCT024 BKN050 09/09 Q0998 WHT TEMPO 27013G23KT 4000 SHRA SCT010 SCT020CB BKN035
18:25
V
9 °C 10 km+ 3.800 ft 220° 220° 4 kt METAR EHEH 271625Z AUTO 22004KT 190V280 9999 -SHRA FEW015CB SCT033 BKN038 09/09 Q0998 BLU TEMPO 27013G23KT 4000 SHRA SCT010 SCT020CB BKN035
18:17
V
9 °C 10 km+ 3.100 ft 230° 230° 6 kt METAR EHEH 271617Z AUTO 23006KT 210V280 9999 -RA FEW015CB SCT027 BKN031 09/09 Q0998 BLU TEMPO 27013G23KT 4000 SHRA SCT010 SCT020CB BKN035
18:13
V
9 °C 10 km+ 3.100 ft 230° 230° 8 kt METAR EHEH 271613Z AUTO 23008KT 210V300 9999 RADZ FEW015CB SCT023 BKN031 09/08 Q0998 WHT TEMPO 27013G23KT 4000 SHRA SCT010 SCT020CB BKN035
18:07
V
9 °C 10 km+ 3.900 ft 230° 230° 9 kt METAR EHEH 271607Z AUTO 23009KT 210V300 9999 FEW015CB SCT032 OVC039 09/08 Q0998 BLU TEMPO 27013G23KT 4000 SHRA SCT010 SCT020CB BKN035
17:55
V
10 °C 8 km 3.600 ft 210° 210° 12 kt METAR EHEH 271555Z AUTO 21012KT 190V280 8000 RA FEW015CB BKN036 OVC041 10/08 Q0998 RERA REDZ BLU TEMPO 27013G23KT 4000 SHRA SCT010 SCT020CB BKN035
17:43
M
10 °C 10 km+ 2.400 ft 220° 220° 13 kt METAR EHEH 271543Z AUTO 22013KT 200V260 9999 -RA FEW015CB SCT020 BKN024 10/08 Q0998 WHT TEMPO 27013G23KT 4000 SHRA SCT010 SCT020CB BKN035
17:38
V
10 °C 10 km+ 3.000 ft 210° 210° 12 kt METAR EHEH 271538Z AUTO 21012KT 190V260 9999 -RADZ FEW015CB SCT023 BKN030 10/08 Q0998 WHT TEMPO 27010G20KT 4000 SHRA SCT010 SCT020CB BKN035
17:25
M
11 °C 10 km+ 2.900 ft 210° 210° 7 kt METAR EHEH 271525Z AUTO 21007KT 180V250 9999 SCT026 BKN029 BKN034 11/08 Q0998 BLU TEMPO 27010G20KT 4000 SHRA SCT010 SCT020CB BKN035
17:12
V
11 °C 10 km+ 3.300 ft 200° 200° 7 kt METAR EHEH 271512Z AUTO 20007KT 170V270 9999 -DZ FEW017 SCT029 BKN033 11/09 Q0998 BLU TEMPO 27010G20KT 4000 SHRA SCT010 SCT020CB BKN035
17:10
V
11 °C 10 km+ 3.300 ft 200° 200° 7 kt METAR EHEH 271510Z AUTO 20007KT 170V270 9999 -DZ FEW017 SCT024 BKN033 11/08 Q0998 WHT TEMPO 27010G20KT 4000 SHRA SCT010 SCT020CB BKN035
16:55
V
11 °C 10 km+ 4.300 ft 230° 230° 6 kt METAR EHEH 271455Z AUTO 23006KT 210V300 9999 SCT039 BKN043 BKN048 11/07 Q0998 BLU TEMPO 27010G20KT 4000 SHRA SCT010 SCT020CB BKN035
16:25
V
11 °C 10 km+ 4.700 ft 240° 240° 8 kt METAR EHEH 271425Z AUTO 24008KT 200V320 9999 FEW016 SCT041 BKN047 11/08 Q0998 REDZ BLU TEMPO 27010G20KT 4000 SHRA SCT010 SCT020CB BKN035
16:07
V
12 °C 10 km+ 3.000 ft 200° 200° 8 kt METAR EHEH 271407Z AUTO 20008KT 160V240 9999 FEW023 SCT027 BKN030 12/09 Q0998 BLU TEMPO 27010G20KT 4000 SHRA SCT010 SCT020CB BKN035
16:00
M
12 °C 10 km+ 2.900 ft 200° 200° 8 kt METAR EHEH 271400Z AUTO 20008KT 160V240 9999 FEW010 SCT017 BKN029 12/09 Q0998 WHT TEMPO 27010G20KT 4000 SHRA SCT010 SCT020CB BKN035
15:57
M
12 °C 10 km+ 1.700 ft 200° 200° 7 kt METAR EHEH 271357Z AUTO 20007KT 160V240 9999 FEW010 SCT014 BKN017 12/09 Q0998 GRN TEMPO 27010G20KT 4000 SHRA SCT010 SCT020CB BKN035
15:55
M
12 °C 10 km+ 1.600 ft 180° 180° 5 kt METAR EHEH 271355Z AUTO 18005KT 150V240 9999 FEW010 BKN016 OVC019 12/09 Q0998 WHT TEMPO 27010G20KT 4000 SHRA SCT010 SCT020CB BKN035
15:36
M
11 °C 10 km+ 1.800 ft 190° 190° 4 kt METAR EHEH 271336Z AUTO 19004KT 150V270 9999 FEW012 SCT015 BKN018 11/09 Q0998 WHT TEMPO 27010G20KT 4000 SHRA SCT010 SCT020CB BKN035
15:25
M
11 °C 10 km+ 1.500 ft 240° 240° 4 kt METAR EHEH 271325Z AUTO 24004KT 190V260 9999 FEW013 BKN015CB BKN019 11/09 Q0999 WHT TEMPO 27010G20KT 4000 SHRA SCT010 SCT020CB BKN035
15:18
M
11 °C 10 km+ 1.500 ft 240° 240° 4 kt METAR EHEH 271318Z AUTO 24004KT 190V320 9999 FEW012 BKN015CB BKN018 11/08 Q0999 WHT TEMPO 27010G20KT 4000 SHRA SCT010 SCT020CB BKN035
15:14
M
11 °C 10 km+ 1.600 ft 250° 250° 4 kt METAR EHEH 271314Z AUTO 25004KT 190V320 9999 SCT011 BKN016 BKN021 11/08 Q0999 GRN TEMPO 27010G20KT 4000 SHRA SCT010 SCT020CB BKN035
14:55
M
11 °C 10 km+ 1.600 ft 250° 250° 4 kt METAR EHEH 271255Z AUTO 25004KT 210V310 9999 FEW011 SCT014 BKN016 11/08 Q0999 GRN TEMPO 27010G20KT 4500 SHRA FEW010 SCT020CB BKN035
14:33
V
11 °C 10 km+ 9.500 ft 240° 240° 6 kt METAR EHEH 271233Z AUTO 24006KT 200V290 9999 SCT011 SCT014 BKN095 11/08 Q0999 GRN TEMPO 27010G20KT 4500 SHRA FEW010 SCT020CB BKN035
14:28
V
11 °C 10 km+ 8.600 ft 240° 240° 6 kt METAR EHEH 271228Z AUTO 24006KT 200V290 9999 SCT011 BKN086 BKN096 11/08 Q0999 GRN TEMPO 27010G20KT 4500 SHRA FEW010 SCT020CB BKN035
14:25
V
11 °C 10 km+ 8.700 ft 240° 240° 6 kt METAR EHEH 271225Z AUTO 24006KT 200V290 9999 FEW081 BKN087 OVC097 11/09 Q0999 BLU TEMPO 27010G20KT 4500 SHRA FEW010 SCT020CB BKN035
13:55
V
10 °C 10 km+ 7.000 ft 260° 260° 5 kt METAR EHEH 271155Z AUTO 26005KT 230V300 9999 FEW055 SCT062 BKN070 10/08 Q0999 BLU TEMPO 27010G20KT 4500 SHRA FEW010 SCT020CB BKN035
13:25
V
9 °C 10 km+ 4.700 ft 260° 260° 5 kt METAR EHEH 271125Z AUTO 26005KT 230V310 9999 -RA FEW040 BKN047 OVC055 09/08 Q0999 BLU TEMPO 27010G20KT 4500 SHRA FEW010 SCT020CB BKN035
13:10
V
9 °C 10 km+ 3.900 ft 270° 270° 7 kt METAR EHEH 271110Z AUTO 27007KT 220V300 9999 -SHRA FEW033 BKN039 OVC049 09/08 Q0999 BLU TEMPO 27010G20KT 4500 SHRA FEW010 SCT020CB BKN035
12:55
V
9 °C 10 km+ 4.600 ft 280° 280° 6 kt METAR EHEH 271055Z AUTO 28006KT 240V320 9999 -RA FEW010 FEW015CB SCT041 BKN046 09/08 Q0999 BLU TEMPO 27010G20KT 4000 SHRA FEW007 SCT012 SCT020CB BKN035
12:35
V
9 °C 10 km+ 4.100 ft 270° 270° 9 kt METAR EHEH 271035Z AUTO 27009KT 230V310 9999 -RA FEW015CB SCT037 BKN041 OVC047 09/08 Q0999 BLU TEMPO 27010G20KT 4000 SHRA FEW007 SCT012 SCT020CB BKN035
12:25
V
9 °C 10 km+ 4.400 ft 260° 260° 10 kt METAR EHEH 271025Z AUTO 26010KT 230V300 9999 -RA FEW010 FEW015CB SCT038 BKN044 09/08 Q0999 BLU TEMPO 27010G20KT 4000 SHRA SCT006 SCT012 SCT020CB BKN035
12:09
V
10 °C 10 km+ 4.700 ft 260° 260° 11 kt METAR EHEH 271009Z AUTO 26011KT 220V320 9999 -RA FEW007 FEW015CB SCT041 BKN047 10/09 Q0999 BLU TEMPO 27010G20KT 4000 SHRA SCT006 SCT012 SCT020CB BKN035
11:55
M
10 °C 8 km 1.000 ft 240° 240° 10 kt METAR EHEH 270955Z AUTO 24010KT 200V280 8000 -RA FEW006 SCT008 BKN010 FEW015CB 10/09 Q0999 RERA REDZ GRN TEMPO 27010G20KT 4000 SHRA SCT006 SCT012 SCT020CB BKN035
11:46
V
10 °C 10 km+ 3.200 ft 230° 230° 11 kt METAR EHEH 270946Z AUTO 23011KT 200V280 9999 DZ FEW008 BKN032 OVC037 10/09 Q0999 BLU TEMPO 27010G20KT 4000 SHRA SCT006 SCT012 SCT020CB BKN035
11:33
I
10 °C 10 km+ 800 ft 230° 230° 11 kt METAR EHEH 270933Z AUTO 23011KT 9999 -RA FEW006 SCT007 BKN008 FEW015CB 10/09 Q0999 GRN TEMPO 27010G20KT 4000 SHRA SCT006 SCT012 SCT020CB BKN035
11:25
V
10 °C 10 km+ 3.800 ft 220° 220° 10 kt METAR EHEH 270925Z AUTO 22010KT 9999 DZ FEW005 FEW015CB BKN038 OVC042 10/09 Q0999 BLU TEMPO 27010G20KT 4000 SHRA SCT006 SCT012 SCT020CB BKN035
11:18
V
10 °C 10 km+ 4.000 ft 220° 220° 10 kt METAR EHEH 270918Z AUTO 22010KT 200V260 9999 DZRA FEW007 FEW015CB BKN040 OVC056 10/09 Q0999 BLU TEMPO 27010G20KT 4000 SHRA SCT007 SCT012 SCT020CB BKN035
11:12
V
10 °C 10 km+ 4.900 ft 220° 220° 10 kt METAR EHEH 270912Z AUTO 22010KT 190V250 9999 -RA FEW005 FEW015CB SCT042 BKN049 10/09 Q0999 BLU TEMPO 27010G20KT 4000 SHRA SCT007 SCT015 SCT020CB BKN035
11:05
I
10 °C 10 km+ 700 ft 230° 230° 10 kt METAR EHEH 270905Z AUTO 23010KT 200V260 9999 -RA FEW005 BKN007 OVC008 10/09 Q0999 GRN TEMPO 27010G20KT 4000 SHRA SCT007 SCT015 SCT020CB BKN035
11:03
I
10 °C 10 km+ 800 ft 220° 220° 9 kt METAR EHEH 270903Z AUTO 22009KT 190V260 9999 -RA SCT006 BKN008 OVC009 10/09 Q0999 YLO TEMPO 27010G20KT 4000 SHRA SCT007 SCT015 SCT020CB BKN035
10:59
I
10 °C 10 km+ 900 ft 220° 220° 10 kt METAR EHEH 270859Z AUTO 22010KT 9999 DZRA FEW006 SCT007 BKN009 10/09 Q0999 GRN TEMPO 27010G20KT 4000 SHRA SCT007 SCT015 SCT020CB BKN035
10:55
V
10 °C 10 km+ 6.100 ft 220° 220° 10 kt METAR EHEH 270855Z AUTO 22010KT 9999 DZ FEW006 SCT009 OVC061 10/09 Q0999 GRN TEMPO 27010G20KT 4000 SHRA SCT007 SCT015 SCT020CB BKN035
10:41
V
9 °C 10 km+ 3.500 ft 230° 230° 9 kt METAR EHEH 270841Z AUTO 23009KT 200V270 9999 DZ FEW005 SCT009 BKN035 09/09 Q0999 GRN TEMPO 27010G20KT 4000 SHRA SCT007 SCT015 SCT020CB BKN035
10:37
V
9 °C 10 km+ 4.500 ft 220° 220° 9 kt METAR EHEH 270837Z AUTO 22009KT 200V270 9999 -RADZ FEW008 SCT030 BKN045 09/09 Q0999 BLU TEMPO 27010G20KT 4000 SHRA SCT007 SCT015 SCT020CB BKN035
10:25
V
9 °C 10 km+ 3.800 ft 230° 230° 10 kt METAR EHEH 270825Z AUTO 23010KT 210V270 9999 DZ FEW007 SCT009 OVC038 09/09 Q0999 GRN TEMPO 27010G20KT 4000 SHRA SCT007 SCT015 SCT020CB BKN035
09:55
V
9 °C 10 km+ 4.300 ft 230° 230° 10 kt METAR EHEH 270755Z AUTO 23010KT 180V290 9999 -RA FEW007 BKN043 OVC048 09/08 Q0999 RERA REDZ BLU TEMPO 27010G20KT 4000 SHRA FEW008 SCT015 SCT020CB BKN035
09:25
V
9 °C 10 km+ 4.100 ft 220° 220° 11 kt METAR EHEH 270725Z AUTO 22011KT 200V260 9999 FEW007 BKN041 OVC047 09/08 Q0999 REDZ BLU TEMPO 27010G20KT 4000 SHRA FEW008 SCT015 SCT020CB BKN035
08:55
V
9 °C 10 km+ 3.000 ft 230° 230° 9 kt METAR EHEH 270655Z AUTO 23009KT 210V270 9999 DZ FEW015CB SCT024 OVC030 09/08 Q0998 WHT TEMPO 27010G20KT 4000 SHRA SCT015 SCT020CB BKN035
08:25
V
8 °C 10 km+ 3.200 ft 240° 240° 7 kt METAR EHEH 270625Z AUTO 24007KT 9999 -DZ BKN032 OVC037 08/07 Q0998 BLU TEMPO 29010G20KT 4000 SHRA SCT015 SCT020CB BKN035
07:55
V
8 °C 10 km+ 4.200 ft 240° 240° 7 kt METAR EHEH 270555Z AUTO 24007KT 210V290 9999 FEW030 BKN042 OVC047 08/07 Q0998 BLU TEMPO 29010G20KT 4000 SHRA SCT015 SCT020CB BKN035
07:25
V
9 °C 10 km+ 4.500 ft 260° 260° 9 kt METAR EHEH 270525Z AUTO 26009KT 220V300 9999 -SHRA FEW015CB SCT039 BKN045 OVC050 09/07 Q0998 REDZ BLU TEMPO 29010G20KT 4000 SHRA SCT015 SCT020CB BKN035
06:55
V
9 °C 10 km+ 5.000 ft 240° 240° 7 kt METAR EHEH 270455Z AUTO 24007KT 200V280 9999 -RADZ FEW040 SCT045 BKN050 09/08 Q0998 RERA REDZ BLU TEMPO 29010G20KT 4000 SHRA SCT015 SCT020CB BKN035
06:25
V
9 °C 10 km+ 3.600 ft 270° 270° 7 kt METAR EHEH 270425Z AUTO 27007KT 230V320 9999 DZRA FEW015CB BKN036 OVC043 09/08 Q0998 REDZ BLU TEMPO 29010G20KT 4000 SHRA SCT015 SCT020CB BKN035
05:55
V
9 °C 10 km+ 5.700 ft 240° 240° 10 kt METAR EHEH 270355Z AUTO 24010KT 9999 FEW034 SCT039 BKN057 09/08 Q0998 BLU
05:25
V
9 °C 10 km+ 9.500 ft 240° 240° 10 kt METAR EHEH 270325Z AUTO 24010KT 200V270 9999 FEW065 BKN095 OVC100 09/08 Q0998 BLU
04:55
V
9 °C 10 km+ 3.800 ft 250° 250° 8 kt METAR EHEH 270255Z AUTO 25008KT 220V280 9999 SCT034 BKN038 BKN044 09/08 Q0998 BLU
04:25
V
9 °C 10 km+ 5.000 ft 260° 260° 8 kt METAR EHEH 270225Z AUTO 26008KT 220V300 9999 -DZ FEW015CB SCT036 BKN050 09/08 Q0998 BLU
03:55
V
9 °C 10 km+ 5.000 ft 250° 250° 8 kt METAR EHEH 270155Z AUTO 25008KT 220V300 9999 FEW041 SCT046 BKN050 09/09 Q0998 BLU
03:25
V
9 °C 10 km+ 5.200 ft 240° 240° 5 kt METAR EHEH 270125Z AUTO 24005KT 220V290 9999 SCT048 BKN052 BKN063 09/09 Q0997 REDZ BLU
02:55
V
10 °C 10 km+ 4.100 ft 270° 270° 6 kt METAR EHEH 270055Z AUTO 27006KT 240V310 9999 -RA FEW015CB BKN041 OVC064 10/09 Q0997 RERA REDZ BLU
02:39
V
10 °C 10 km+ 3.600 ft 260° 260° 8 kt METAR EHEH 270039Z AUTO 26008KT 240V310 9999 DZ FEW015CB SCT029 BKN036 10/09 Q0997 BLU
02:25
V
10 °C 10 km+ 4.900 ft 260° 260° 8 kt METAR EHEH 270025Z AUTO 26008KT 230V300 9999 -RA FEW015CB BKN049 OVC054 10/09 Q0997 BLU
02:18
V
10 °C 10 km+ 4.600 ft 260° 260° 8 kt METAR EHEH 270018Z AUTO 26008KT 230V290 9999 SHRA FEW005 FEW015CB SCT031 BKN046 10/09 Q0997 BLU
02:11
M
10 °C 6 km 2.900 ft 270° 270° 8 kt METAR EHEH 270011Z AUTO 27008KT 220V310 6000 SHRA FEW005 FEW015CB SCT017 BKN029 10/09 Q0997 WHT
02:03
M
10 °C 10 km+ 1.600 ft 250° 250° 7 kt METAR EHEH 270003Z AUTO 25007KT 230V290 9999 -SHRA FEW007 SCT014 BKN016 10/09 Q0997 GRN
01:55
V
10 °C 10 km+ 3.900 ft 250° 250° 7 kt METAR EHEH 262355Z AUTO 25007KT 210V280 9999 FEW018 SCT023 BKN039 10/09 Q0997 WHT
01:35
V
10 °C 10 km+ 4.500 ft 250° 250° 7 kt METAR EHEH 262335Z AUTO 25007KT 220V290 9999 FEW007 SCT040 BKN045 10/09 Q0997 BLU
01:28
M
10 °C 10 km+ 2.100 ft 250° 250° 7 kt METAR EHEH 262328Z AUTO 25007KT 230V290 9999 FEW007 BKN021 BKN034 10/09 Q0997 WHT
01:25
V
10 °C 10 km+ 3.600 ft 250° 250° 6 kt METAR EHEH 262325Z AUTO 25006KT 220V290 9999 FEW007 SCT030 BKN036 10/09 Q0997 BLU
00:55
V
10 °C 10 km+ 4.900 ft 250° 250° 6 kt METAR EHEH 262255Z AUTO 25006KT 220V280 9999 FEW003 SCT042 BKN049 10/10 Q0997 BLU
00:25
V
10 °C 10 km+ 5.900 ft 290° 290° 3 kt METAR EHEH 262225Z AUTO 29003KT 240V340 9999 -RADZ FEW007 FEW015CB SCT053 BKN059 10/10 Q0997 BLU
00:08
I
10 °C 10 km+ 800 ft 310° 310° 6 kt METAR EHEH 262208Z AUTO 31006KT 210V010 9999 -RA FEW005 SCT007 BKN008 FEW015CB 10/10 Q0997 GRN
00:04
M
10 °C 10 km+ 2.300 ft 290° 290° 7 kt METAR EHEH 262204Z AUTO 29007KT 210V360 9999 SHRA FEW007 SCT012 FEW015CB BKN023 10/10 Q0997 GRN

26 settembre 2022

Tempo Codice Tempo metereologico Temp. Vista Base nuvolosa Vento METAR/SPECI
23:55
V
10 °C 10 km+ 4.600 ft 280° 280° 6 kt METAR EHEH 262155Z AUTO 28006KT 240V340 9999 SHRA FEW015CB BKN046 BKN055 10/10 Q0997 REDZ BLU
23:37
V
10 °C 10 km+ 5.600 ft 290° 290° 7 kt METAR EHEH 262137Z AUTO 29007KT 230V340 9999 -RA FEW015CB SCT044 OVC056 10/10 Q0997 BLU
23:25
V
11 °C 10 km+ 4.600 ft 310° 310° 8 kt METAR EHEH 262125Z AUTO 31008KT 250V010 9999 DZ FEW008 FEW015CB SCT042 BKN046 11/10 Q0997 BLU TEMPO 30010G20KT 4000 SHRA FEW015 SCT020CB BKN025
23:18
V
11 °C 10 km+ 4.300 ft 310° 310° 10 kt METAR EHEH 262118Z AUTO 31010KT 250V010 9999 -RADZ FEW008 FEW015CB SCT016 BKN043 11/10 Q0997 WHT TEMPO 30010G20KT 4000 SHRA FEW015 SCT020CB BKN025
23:12
M
11 °C 10 km+ 1.800 ft 310° 310° 10 kt METAR EHEH 262112Z AUTO 31010KT 250V360 9999 -RA FEW007 SCT008 FEW015CB BKN018 11/10 Q0997 GRN TEMPO 30010G20KT 4000 SHRA FEW015 SCT020CB BKN025
23:06
V
11 °C 10 km+ 3.300 ft 300° 300° 9 kt METAR EHEH 262106Z AUTO 30009KT 240V010 9999 -RA FEW008 SCT015CB BKN033 11/10 Q0997 WHT TEMPO 30010G20KT 4000 SHRA FEW015 SCT020CB BKN025
22:59
M
11 °C 10 km+ 1.000 ft 290° 290° 10 kt METAR EHEH 262059Z AUTO 29010KT 230V340 9999 RA FEW007 BKN010 BKN014 SCT015CB 11/10 Q0997 GRN TEMPO 30010G20KT 4000 SHRA FEW015 SCT020CB BKN025
22:55
M
11 °C 9 km 1.600 ft 280° 280° 11 kt METAR EHEH 262055Z AUTO 28011KT 230V340 9000 RA FEW008 SCT010 SCT015CB BKN016 11/10 Q0997 RERA REDZ GRN TEMPO 30010G20KT 4000 SHRA FEW015 SCT020CB BKN025
22:41
M
11 °C 10 km+ 1.000 ft 260° 260° 9 kt METAR EHEH 262041Z AUTO 26009KT 220V310 9999 +DZRA FEW007 SCT008 BKN010 FEW015CB 11/10 Q0996 GRN TEMPO 30010G20KT 4000 SHRA FEW015 SCT020CB BKN025
22:34
M
11 °C 10 km+ 2.100 ft 250° 250° 9 kt METAR EHEH 262034Z AUTO 25009KT 220V310 9999 DZ FEW007 SCT011 FEW015CB OVC021 11/10 Q0996 GRN TEMPO 30010G20KT 4000 SHRA FEW015 SCT020CB BKN025
22:25
M
11 °C 10 km+ 2.100 ft 250° 250° 7 kt METAR EHEH 262025Z AUTO 25007KT 220V290 9999 -DZ FEW002 FEW015CB BKN021 BKN025 11/10 Q0996 REDZ WHT TEMPO 30010G20KT 4000 SHRA FEW015 SCT020CB BKN025
22:15
M
11 °C 10 km+ 2.500 ft 250° 250° 7 kt METAR EHEH 262015Z AUTO 25007KT 220V280 9999 -RA FEW006 FEW015CB SCT021 BKN025 11/10 Q0996 WHT TEMPO 30010G20KT 4000 SHRA FEW015 SCT020CB BKN025
22:11
M
11 °C 10 km+ 2.600 ft 250° 250° 7 kt METAR EHEH 262011Z AUTO 25007KT 200V280 9999 FEW015CB SCT022 BKN026 OVC031 11/10 Q0996 WHT TEMPO 30010G20KT 4000 SHRA FEW015 SCT020CB BKN025
22:07
M
11 °C 10 km+ 2.500 ft 240° 240° 8 kt METAR EHEH 262007Z AUTO 24008KT 200V280 9999 FEW022 BKN025 BKN028 11/10 Q0996 BLU TEMPO 30010G20KT 4000 SHRA FEW015 SCT020CB BKN025
22:03
M
11 °C 10 km+ 2.100 ft 240° 240° 7 kt METAR EHEH 262003Z AUTO 24007KT 230V290 9999 BKN021 BKN026 BKN031 11/10 Q0996 WHT TEMPO 30010G20KT 4000 SHRA FEW015 SCT020CB BKN025
21:55
V
11 °C 10 km+ 4.800 ft 240° 240° 7 kt METAR EHEH 261955Z AUTO 24007KT 230V290 9999 FEW019 BKN048 OVC052 11/10 Q0996 BLU TEMPO 30010G20KT 4000 SHRA FEW015 SCT020CB BKN025
21:41
M
11 °C 10 km+ 2.300 ft 250° 250° 7 kt METAR EHEH 261941Z AUTO 25007KT 220V290 9999 FEW019 BKN023 BKN029 11/10 Q0996 WHT TEMPO 30010G20KT 4000 SHRA FEW015 SCT020CB BKN025
21:39
V
11 °C 10 km+ 3.800 ft 250° 250° 7 kt METAR EHEH 261939Z AUTO 25007KT 220V290 9999 SCT024 BKN038 OVC042 11/10 Q0996 WHT TEMPO 30010G20KT 4000 SHRA FEW015 SCT020CB BKN025
21:25
V
11 °C 10 km+ 3.100 ft 270° 270° 6 kt METAR EHEH 261925Z AUTO 27006KT 230V290 9999 SCT027 BKN031 OVC036 11/11 Q0996 BLU TEMPO 30010G20KT 4000 SHRA FEW015 SCT020CB BKN025
21:20
M
11 °C 10 km+ 2.800 ft 270° 270° 6 kt METAR EHEH 261920Z AUTO 27006KT 230V290 9999 FEW008 SCT017 BKN028 11/10 Q0996 WHT TEMPO 30010G20KT 4000 SHRA FEW015 SCT020CB BKN025
21:07
M
11 °C 10 km+ 1.700 ft 250° 250° 8 kt METAR EHEH 261907Z AUTO 25008KT 220V300 9999 FEW010 SCT014 BKN017 11/11 Q0996 GRN TEMPO 30010G20KT 4000 SHRA FEW015 SCT020CB BKN025
21:03
M
11 °C 10 km+ 2.100 ft 240° 240° 7 kt METAR EHEH 261903Z AUTO 24007KT 210V290 9999 SCT015 BKN021 BKN027 11/11 Q0996 WHT TEMPO 30010G20KT 4000 SHRA FEW015 SCT020CB BKN025
20:55
M
11 °C 10 km+ 2.600 ft 240° 240° 8 kt METAR EHEH 261855Z AUTO 24008KT 9999 SCT021 BKN026 BKN030 11/11 Q0996 WHT BECMG 28008KT TEMPO 30010G20KT 4000 SHRA FEW015 SCT020CB BKN025
20:44
M
11 °C 10 km+ 2.700 ft 230° 230° 7 kt METAR EHEH 261844Z AUTO 23007KT 210V310 9999 FEW011 SCT021 BKN027 11/11 Q0996 WHT BECMG 28008KT TEMPO 30010G20KT 4000 SHRA FEW015 SCT020CB BKN025
20:25
V
11 °C 10 km+ - 230° 230° 6 kt METAR EHEH 261825Z AUTO 23006KT 9999 FEW025 SCT096 11/10 Q0996 BLU BECMG 28008KT TEMPO 30010G20KT 4000 SHRA FEW015 SCT020CB BKN025
19:55
V
11 °C 10 km+ 5.000 ft 230° 230° 6 kt METAR EHEH 261755Z AUTO 23006KT 200V270 9999 FEW015CB BKN050 BKN065 11/11 Q0996 REDZ BLU BECMG 28008KT TEMPO 30010G20KT 4000 SHRA FEW015 SCT020CB BKN025
19:25
V
12 °C 10 km+ 5.400 ft 230° 230° 9 kt METAR EHEH 261725Z AUTO 23009KT 190V250 9999 -RA FEW049 BKN054 OVC060 12/11 Q0996 RERA REDZ BLU BECMG 28008KT TEMPO 30010G20KT 4000 SHRA FEW015 SCT020CB BKN025
19:17
V
12 °C 10 km+ 5.100 ft 220° 220° 9 kt METAR EHEH 261717Z AUTO 22009KT 9999 +DZRA FEW015CB SCT026 BKN051 12/11 Q0996 BLU BECMG 28008KT TEMPO 30010G20KT 4000 SHRA FEW015 SCT020CB BKN025
19:12
M
12 °C 10 km+ 2.600 ft 220° 220° 10 kt METAR EHEH 261712Z AUTO 22010KT 9999 -RA FEW015CB SCT018 BKN026 12/11 Q0996 WHT BECMG 28008KT TEMPO 30010G20KT 4000 SHRA FEW015 SCT020CB BKN025
19:05
V
12 °C 10 km+ 4.200 ft 220° 220° 9 kt METAR EHEH 261705Z AUTO 22009KT 9999 -RA FEW015CB SCT023 BKN042 BKN047 12/11 Q0996 WHT BECMG 28008KT TEMPO 30010G20KT 4000 SHRA FEW015 SCT020CB BKN025
18:57
V
12 °C 10 km+ 5.900 ft 220° 220° 8 kt METAR EHEH 261657Z AUTO 22008KT 200V260 9999 DZ FEW042 SCT053 OVC059 12/11 Q0996 BLU BECMG 28008KT TEMPO 30010G20KT 4000 SHRA FEW015 SCT020CB BKN025
18:55
V
12 °C 10 km+ 5.200 ft 230° 230° 8 kt METAR EHEH 261655Z AUTO 23008KT 200V260 9999 DZ FEW006 BKN052 OVC059 12/11 Q0996 RERA REDZ BLU BECMG 28008KT TEMPO 4000 SHRA FEW015 SCT020CB BKN025
18:39
I
12 °C 10 km+ 900 ft 230° 230° 11 kt METAR EHEH 261639Z AUTO 23011KT 200V270 9999 +DZ FEW004 SCT006 BKN009 12/11 Q0996 YLO TEMPO 3500 RADZ SCT005 BKN006 BKN008
18:37
M
12 °C 9 km 1.100 ft 230° 230° 10 kt METAR EHEH 261637Z AUTO 23010KT 200V270 9000 -RADZ FEW004 SCT008 BKN011 12/11 Q0996 GRN TEMPO 3500 RADZ SCT005 BKN006 BKN008
18:25
I
12 °C 4,6 km 600 ft 230° 230° 9 kt METAR EHEH 261625Z AUTO 23009KT 190V260 4600 RA FEW005 BKN006 BKN007 12/11 Q0996 RERA REDZ YLO TEMPO 3500 RADZ SCT005 BKN006 BKN008
18:18
I
12 °C 5 km 600 ft 230° 230° 10 kt METAR EHEH 261618Z AUTO 23010KT 190V260 5000 +DZ FEW005 BKN006 OVC007 12/11 Q0996 YLO TEMPO 3500 RADZ SCT005 BKN006 BKN008
18:05
I
12 °C 9 km 600 ft 220° 220° 11 kt METAR EHEH 261605Z AUTO 22011KT 9000 +DZ SCT005 BKN006 OVC007 12/11 Q0996 YLO TEMPO 3500 RADZ SCT005 BKN006 BKN008
17:55
I
12 °C 6 km 600 ft 220° 220° 12 kt METAR EHEH 261555Z AUTO 22012KT 6000 RA FEW005 BKN006 BKN007 12/11 Q0996 RERA REDZ YLO TEMPO 3500 RADZ SCT005 BKN006 BKN008
17:43
I
12 °C 6 km 600 ft 210° 210° 12 kt METAR EHEH 261543Z AUTO 21012KT 6000 -SHRA FEW005 BKN006 BKN008 12/11 Q0996 YLO TEMPO 3500 RADZ SCT005 BKN006 BKN008
17:37
I
12 °C 4,3 km 800 ft 200° 200° 13 kt METAR EHEH 261537Z AUTO 20013KT 180V240 4300 +DZRA FEW005 SCT006 BKN008 12/11 Q0996 YLO TEMPO 3500 RADZ SCT005 BKN006 BKN008
17:30
I
12 °C 4,1 km 800 ft 200° 200° 12 kt METAR EHEH 261530Z AUTO 20012KT 180V240 4100 +DZRA FEW005 SCT007 BKN008 12/11 Q0996 GRN TEMPO 3500 RADZ SCT005 BKN006 BKN008
17:25
I
12 °C 4,3 km 700 ft 200° 200° 12 kt METAR EHEH 261525Z AUTO 20012KT 180V240 4300 +DZ FEW005 BKN007 BKN008 12/11 Q0996 GRN TEMPO 3500 RADZ FEW005 BKN006 BKN008
17:17
I
12 °C 3,9 km 900 ft 200° 200° 14 kt METAR EHEH 261517Z AUTO 20014KT 180V240 3900 DZ FEW006 SCT008 BKN009 12/11 Q0997 GRN TEMPO 3500 RADZ FEW005 BKN006 BKN008
17:09
I
12 °C 6 km 700 ft 200° 200° 12 kt METAR EHEH 261509Z AUTO 20012KT 180V250 6000 -RA SCT006 BKN007 BKN008 12/11 Q0997 YLO TEMPO 4500 RADZ FEW005 BKN006 BKN008
16:55
I
12 °C 6 km 900 ft 200° 200° 14 kt METAR EHEH 261455Z AUTO 20014KT 190V260 6000 DZ FEW007 SCT008 BKN009 12/11 Q0997 GRN TEMPO 4500 RADZ FEW005 BKN006 BKN008
16:42
I
12 °C 6 km 900 ft 210° 210° 12 kt METAR EHEH 261442Z AUTO 21012KT 180V240 6000 BR FEW007 SCT008 BKN009 12/12 Q0997 GRN TEMPO FEW005 BKN006 BKN008
16:38
M
12 °C 7 km 1.000 ft 210° 210° 12 kt METAR EHEH 261438Z AUTO 21012KT 190V250 7000 R21/2800D DZ FEW005 SCT007 BKN010 12/12 Q0997 GRN TEMPO 21014G24KT 2500 RADZ RASH SCT005 BKN007 BKN010 SCT015CB
16:25
I
12 °C 4,2 km 700 ft 210° 210° 12 kt METAR EHEH 261425Z AUTO 21012KT 4200 -RA FEW004 SCT006 BKN007 12/12 Q0997 RERA REDZ YLO TEMPO 21014G24KT 2500 RADZ RASH SCT005 BKN007 BKN010 SCT015CB
16:11
I
12 °C 3,4 km 800 ft 210° 210° 14 kt METAR EHEH 261411Z AUTO 21014KT 3400 R21/P3000N -RADZ FEW005 SCT006 BKN008 12/11 Q0997 YLO TEMPO 21014G24KT 2500 RADZ RASH SCT005 BKN007 BKN010 SCT015CB
15:58
I
12 °C 3,2 km 700 ft 210° 210° 14 kt METAR EHEH 261358Z AUTO 21014KT 160V240 3200 R21/P3000D +DZ FEW005 BKN007 BKN008 12/11 Q0998 YLO TEMPO 21014G24KT 2500 RADZ FEW006 BKN007 BKN010
15:55
I
12 °C 4,2 km 700 ft 200° 200° 14 kt METAR EHEH 261355Z AUTO 20014KT 160V240 4200 +DZ FEW006 BKN007 BKN010 12/11 Q0998 GRN TEMPO 21014G24KT 2500 RADZ FEW006 BKN007 BKN010
15:25
I
12 °C 4,8 km 1.100 ft 200° 200° 12 kt METAR EHEH 261325Z AUTO 20012KT 4800 DZ FEW006 SCT008 BKN011 12/11 Q0998 GRN TEMPO 21014G24KT 2500 RADZ FEW006 BKN007 BKN010
14:55
M
12 °C 6 km 1.000 ft 210° 210° 16 kt METAR EHEH 261255Z AUTO 21016KT 180V250 6000 -RADZ FEW007 SCT008 BKN010 12/11 Q0998 GRN TEMPO 21014G24KT 2500 RADZ FEW006 BKN007 BKN010
14:51
M
12 °C 7 km 1.100 ft 210° 210° 15 kt METAR EHEH 261251Z AUTO 21015KT 180V260 7000 DZ FEW008 SCT009 BKN011 12/11 Q0998 GRN TEMPO 21014G24KT 2500 RADZ FEW006 BKN007 BKN010
14:25
I
12 °C 9 km 800 ft 200° 200° 12 kt METAR EHEH 261225Z AUTO 20012KT 9000 DZ FEW007 BKN008 BKN009 12/11 Q0998 GRN TEMPO 21014G24KT 2500 RADZ FEW006 BKN007 BKN010
14:08
I
12 °C 7 km 800 ft 200° 200° 13 kt METAR EHEH 261208Z AUTO 20013KT 170V230 7000 DZ SCT007 BKN008 BKN009 12/11 Q0999 GRN TEMPO 21014G24KT 2500 RADZ FEW006 BKN007 BKN010
13:55
I
12 °C 4,7 km 900 ft 200° 200° 14 kt METAR EHEH 261155Z AUTO 20014KT 170V230 4700 DZ FEW008 BKN009 BKN011 12/11 Q0999 GRN TEMPO 21014G24KT 2500 RADZ FEW006 BKN007 BKN010
13:25
I
12 °C 4,2 km 1.300 ft 200° 200° 15 kt METAR EHEH 261125Z AUTO 20015KT 4200 -SHRA +DZ FEW007 SCT010 BKN013 12/11 Q0999 GRN TEMPO 21014G26KT 2500 RADZ FEW006 BKN007 BKN010
13:16
I
12 °C 3,9 km 1.100 ft 200° 200° 14 kt METAR EHEH 261116Z AUTO 20014KT 3900 +DZ FEW009 BKN011 BKN014 12/11 Q0999 GRN TEMPO 21014G26KT 2500 RADZ FEW006 BKN007 BKN010
13:12
I
12 °C 4,1 km 1.100 ft 200° 200° 14 kt METAR EHEH 261112Z AUTO 20014KT 170V230 4100 -RADZ FEW007 BKN011 BKN014 12/11 Q0999 GRN TEMPO 21014G26KT 3500 RADZ FEW006 BKN007 BKN010
13:09
M
12 °C 6 km 1.300 ft 190° 190° 14 kt METAR EHEH 261109Z AUTO 19014KT 170V230 6000 DZ FEW007 SCT011 BKN013 12/11 Q0999 GRN TEMPO 21014G26KT 3500 RADZ FEW006 BKN007 BKN010
12:55
M
12 °C 10 km+ 1.600 ft 190° 190° 14 kt METAR EHEH 261055Z AUTO 19014KT 160V220 9999 FEW010 SCT013 BKN016 12/11 Q0999 GRN TEMPO 21014G26KT 4500 RADZ FEW006 BKN007 BKN010
12:41
V
12 °C 10 km+ 3.500 ft 190° 190° 14 kt METAR EHEH 261041Z AUTO 19014KT 160V230 9999 FEW011 SCT015 BKN035 12/11 Q0999 WHT TEMPO 21014G26KT 4500 RADZ FEW007 SCT009 BKN012
12:36
V
12 °C 10 km+ 3.700 ft 190° 190° 15 kt METAR EHEH 261036Z AUTO 19015KT 170V230 9999 -SHRA FEW011 SCT014 FEW015CB BKN037 12/11 Q0999 GRN TEMPO 21014G26KT 4500 RADZ FEW007 SCT009 BKN012
12:25
M
12 °C 10 km+ 1.500 ft 190° 190° 13 kt METAR EHEH 261025Z AUTO 19013KT 150V230 9999 -RA FEW011 BKN015CB BKN019 12/11 Q1000 RERA REDZ WHT TEMPO 21014G26KT 4500 RADZ FEW007 SCT009 BKN012
11:55
V
12 °C 10 km+ 5.700 ft 190° 190° 13 kt METAR EHEH 260955Z AUTO 19013KT 140V220 9999 -SHRA FEW015CB SCT037 BKN057 12/10 Q1000 REDZ BLU TEMPO 21014G25KT 4500 RADZ FEW 010 SCT014 BKN020
11:40
V
12 °C 10 km+ 4.100 ft 190° 190° 12 kt METAR EHEH 260940Z AUTO 19012KT 160V230 9999 -RA FEW015CB SCT035 BKN041 12/10 Q1000 BLU TEMPO 21014G25KT 4500 RADZ FEW 010 SCT014 BKN020
11:29
M
12 °C 10 km+ 1.900 ft 200° 200° 12 kt METAR EHEH 260929Z AUTO 20012KT 170V230 9999 -RA SCT015 BKN019 BKN038 12/10 Q1001 WHT TEMPO 21014G25KT 4500 RADZ FEW 010 SCT014 BKN020
11:25
V
12 °C 10 km+ 3.800 ft 200° 200° 12 kt METAR EHEH 260925Z AUTO 20012KT 9999 -RADZ SCT015 SCT020 OVC038 12/10 Q1001 WHT TEMPO 21014G25KT 4500 RADZ SCT015 BKN020
11:15
V
12 °C 10 km+ 3.800 ft 200° 200° 13 kt METAR EHEH 260915Z AUTO 20013KT 170V230 9999 FEW016 SCT030 BKN038 12/09 Q1001 BLU NOSIG
11:05
M
12 °C 10 km+ 1.500 ft 190° 190° 11 kt METAR EHEH 260905Z AUTO 19011KT 160V230 9999 BKN015 BKN018 BKN035 12/09 Q1001 WHT NOSIG
11:01
V
12 °C 10 km+ 3.900 ft 190° 190° 11 kt METAR EHEH 260901Z AUTO 19011KT 170V230 9999 SCT015 SCT018 BKN039 12/09 Q1001 WHT NOSIG
10:55
V
12 °C 10 km+ 3.600 ft 190° 190° 12 kt METAR EHEH 260855Z AUTO 19012KT 9999 SCT015 SCT020 BKN036 12/09 Q1001 WHT NOSIG
10:29
M
12 °C 10 km+ 1.900 ft 190° 190° 12 - 23 kt METAR EHEH 260829Z AUTO 19012G23KT 160V220 9999 SCT015 BKN019 OVC042 12/09 Q1001 WHT NOSIG
10:25
V
12 °C 10 km+ 4.500 ft 190° 190° 12 - 23 kt METAR EHEH 260825Z AUTO 19012G23KT 160V220 9999 SCT016 BKN045 OVC050 12/09 Q1001 WHT NOSIG
09:55
V
11 °C 10 km+ 9.200 ft 190° 190° 11 kt METAR EHEH 260755Z AUTO 19011KT 170V230 9999 FEW079 BKN092 OVC097 11/09 Q1001 BLU NOSIG
09:25
V
11 °C 10 km+ 3.800 ft 190° 190° 13 kt METAR EHEH 260725Z AUTO 19013KT 160V230 9999 FEW033 BKN038 OVC066 11/09 Q1002 REDZ BLU NOSIG
08:55
V
11 °C 10 km+ 6.000 ft 190° 190° 12 kt METAR EHEH 260655Z AUTO 19012KT 150V220 9999 DZ BKN060 BKN068 OVC084 11/08 Q1002 BLU NOSIG
08:25
V
11 °C 10 km+ 4.300 ft 190° 190° 10 kt METAR EHEH 260625Z AUTO 19010KT 170V240 9999 -DZ FEW033 SCT038 BKN043 11/08 Q1003 BLU NOSIG
07:55
V
11 °C 10 km+ 5.700 ft 190° 190° 9 kt METAR EHEH 260555Z AUTO 19009KT 9999 -DZ FEW043 SCT049 BKN057 11/08 Q1004 BLU NOSIG
07:25
V
11 °C 10 km+ 5.600 ft 190° 190° 10 kt METAR EHEH 260525Z AUTO 19010KT 160V220 9999 +DZ FEW030 SCT050 OVC056 11/08 Q1004 BLU NOSIG
06:55
V
11 °C 10 km+ 5.500 ft 190° 190° 10 kt METAR EHEH 260455Z AUTO 19010KT 170V230 9999 SCT048 BKN055 OVC060 11/08 Q1005 BLU NOSIG
06:25
V
11 °C 10 km+ 7.500 ft 200° 200° 9 kt METAR EHEH 260425Z AUTO 20009KT 180V240 9999 DZ FEW060 BKN075 OVC082 11/08 Q1005 BLU NOSIG
05:55
V
11 °C 10 km+ 6.900 ft 200° 200° 11 kt METAR EHEH 260355Z AUTO 20011KT 9999 -RADZ FEW053 SCT062 BKN069 11/08 Q1006 BLU
05:25
V
11 °C 10 km+ 7.800 ft 210° 210° 10 kt METAR EHEH 260325Z AUTO 21010KT 9999 FEW049 SCT070 BKN078 11/08 Q1006 BLU
04:55
V
11 °C 10 km+ 9.000 ft 210° 210° 10 kt METAR EHEH 260255Z AUTO 21010KT 9999 BKN090 OVC097 11/08 Q1007 BLU
04:25
V
11 °C 10 km+ 10.000 ft 200° 200° 10 kt METAR EHEH 260225Z AUTO 20010KT 9999 OVC100 11/09 Q1007 BLU
03:55
V
11 °C 10 km+ 5.300 ft 210° 210° 9 kt METAR EHEH 260155Z AUTO 21009KT 9999 BKN053 OVC059 11/09 Q1008 BLU
03:25
V
11 °C 10 km+ 5.100 ft 210° 210° 9 kt METAR EHEH 260125Z AUTO 21009KT 9999 BKN051 OVC058 11/09 Q1009 BLU
02:55
V
11 °C 10 km+ 5.100 ft 210° 210° 8 kt METAR EHEH 260055Z AUTO 21008KT 9999 OVC051 11/09 Q1009 BLU
02:25
V
10 °C 10 km+ 6.900 ft 210° 210° 6 kt METAR EHEH 260025Z AUTO 21006KT 9999 FEW046 OVC069 10/09 Q1010 BLU
01:55
V
10 °C 10 km+ 6.900 ft 200° 200° 6 kt METAR EHEH 252355Z AUTO 20006KT 9999 FEW061 BKN069 OVC130 10/09 Q1010 BLU
01:25
V
10 °C 10 km+ 5.200 ft 210° 210° 6 kt METAR EHEH 252325Z AUTO 21006KT 9999 BKN052 BKN060 OVC070 10/09 Q1011 BLU
00:55
V
10 °C 10 km+ 6.500 ft 210° 210° 4 kt METAR EHEH 252255Z AUTO 21004KT 9999 BKN065 OVC071 10/09 Q1011 BLU
00:25
V
9 °C 10 km+ 6.200 ft 220° 220° 3 kt METAR EHEH 252225Z AUTO 22003KT 9999 SCT057 BKN062 OVC071 09/09 Q1011 BLU

25 settembre 2022

Tempo Codice Tempo metereologico Temp. Vista Base nuvolosa Vento METAR/SPECI
23:55
V
8 °C 10 km+ 23.000 ft 220° 220° 4 kt METAR EHEH 252155Z AUTO 22004KT 9999 OVC230 08/08 Q1011 BLU
23:44
V
8 °C 10 km+ 23.000 ft 200° 200° 4 kt METAR EHEH 252144Z AUTO 20004KT 9999 OVC230 08/08 Q1011 BLU
23:25
V
8 °C 10 km+ 24.000 ft 220° 220° 4 kt METAR EHEH 252125Z AUTO 22004KT 9999 OVC240 08/08 Q1012 BLU NOSIG
22:55
V
9 °C 10 km+ 24.000 ft 190° 190° 2 kt METAR EHEH 252055Z AUTO 19002KT 9999 OVC240 09/09 Q1012 BLU NOSIG
22:25
V
10 °C 10 km+ 8.000 ft Var Var 2 kt METAR EHEH 252025Z AUTO VRB02KT 9999 BKN080 BKN250 10/09 Q1012 BLU NOSIG
21:55
V
10 °C 10 km+ 7.900 ft Var Var 2 kt METAR EHEH 251955Z AUTO VRB02KT 9999 OVC079 10/09 Q1013 BLU NOSIG
21:25
V
9 °C 10 km+ 31.000 ft 240° 240° 3 kt METAR EHEH 251925Z AUTO 24003KT 9999 SCT081 SCT260 OVC310 09/08 Q1013 BLU NOSIG
20:55
V
11 °C 10 km+ 8.300 ft 270° 270° 3 kt METAR EHEH 251855Z AUTO 27003KT 9999 OVC083 11/09 Q1013 BLU NOSIG
20:26
V
11 °C 10 km+ 8.500 ft Var Var 2 kt METAR EHEH 251826Z AUTO VRB02KT 9999 OVC085 11/10 Q1013 BLU NOSIG
20:25
V
11 °C 10 km+ 8.400 ft Var Var 2 kt METAR EHEH 251825Z AUTO VRB02KT 9999 OVC084 11/10 Q1013 BLU BECMG 27005KT
19:55
V
12 °C 10 km+ 8.600 ft 310° 310° 3 kt METAR EHEH 251755Z AUTO 31003KT 260V340 9999 FEW040 SCT046 OVC086 12/10 Q1013 BLU BECMG 27005KT
19:25
V
13 °C 10 km+ - 290° 290° 3 kt METAR EHEH 251725Z AUTO 29003KT 9999 FEW092 13/09 Q1013 BLU BECMG 27005KT
18:55
V
14 °C 10 km+ - 330° 330° 3 kt METAR EHEH 251655Z AUTO 33003KT 270V010 9999 FEW087 14/09 Q1013 BLU BECMG 27005KT
18:25
V
15 °C 10 km+ 8.700 ft 350° 350° 6 kt METAR EHEH 251625Z AUTO 35006KT 290V020 9999 FEW080 OVC087 15/09 Q1013 BLU BECMG 27005KT
17:55
V
16 °C 10 km+ 8.800 ft 310° 310° 7 kt METAR EHEH 251555Z AUTO 31007KT 240V020 9999 OVC088 16/09 Q1013 BLU BECMG 27005KT
17:25
V
16 °C 10 km+ 8.400 ft 300° 300° 5 kt METAR EHEH 251525Z AUTO 30005KT 260V360 9999 BKN084 BKN089 16/09 Q1013 BLU NOSIG
16:55
V
16 °C 10 km+ 8.000 ft 310° 310° 7 kt METAR EHEH 251455Z AUTO 31007KT 270V340 9999 BKN080 OVC085 16/08 Q1014 BLU NOSIG
Dati più vecchi

Noi e le terze parti seguiamo il tuo comportamento in internet sul nostro sito web con i cookie. Se continui, riteniamo che tu sia d'accordo con la nostra politica sui cookie. Per saperne di più